<?xml version="1.0" encoding="UTF-8"?>
<gpx xmlns="http://www.topografix.com/GPX/1/1" xmlns:xsi="http://www.w3.org/2001/XMLSchema-instance" version="1.1" xsi:schemaLocation="http://www.topografix.com/GPX/1/1 http://www.topografix.com/GPX/1/1/gpx.xsd">
  <metadata>
    <name>Nashville Women's Triathlon 2023</name>
  </metadata>
  <trk>
    <name>Nashville Women's Triathlon 2023</name>
    <trkseg>
      <trkpt lat="36.148371" lon="-86.813442">
        <ele>162.78025</ele>
        <time>2024-05-19T07:34:00.000Z</time>
      </trkpt>
      <trkpt lat="36.148498" lon="-86.81356">
        <ele>162.780257</ele>
        <time>2024-05-19T07:34:02.000Z</time>
      </trkpt>
      <trkpt lat="36.149035" lon="-86.813997">
        <ele>162.780266</ele>
        <time>2024-05-19T07:34:09.000Z</time>
      </trkpt>
      <trkpt lat="36.149187" lon="-86.814123">
        <ele>162.744907</ele>
        <time>2024-05-19T07:34:11.000Z</time>
      </trkpt>
      <trkpt lat="36.149272" lon="-86.814193">
        <ele>162.699009</ele>
        <time>2024-05-19T07:34:12.000Z</time>
      </trkpt>
      <trkpt lat="36.14937" lon="-86.814283">
        <ele>162.653439</ele>
        <time>2024-05-19T07:34:13.000Z</time>
      </trkpt>
      <trkpt lat="36.149527" lon="-86.814408">
        <ele>162.578851</ele>
        <time>2024-05-19T07:34:15.000Z</time>
      </trkpt>
      <trkpt lat="36.149631" lon="-86.814471">
        <ele>162.533966</ele>
        <time>2024-05-19T07:34:16.000Z</time>
      </trkpt>
      <trkpt lat="36.149751" lon="-86.814629">
        <ele>162.46349</ele>
        <time>2024-05-19T07:34:18.000Z</time>
      </trkpt>
      <trkpt lat="36.149964" lon="-86.81492">
        <ele>162.336852</ele>
        <time>2024-05-19T07:34:22.000Z</time>
      </trkpt>
      <trkpt lat="36.150011" lon="-86.815004">
        <ele>162.301307</ele>
        <time>2024-05-19T07:34:23.000Z</time>
      </trkpt>
      <trkpt lat="36.150084" lon="-86.815144">
        <ele>162.24782</ele>
        <time>2024-05-19T07:34:24.000Z</time>
      </trkpt>
      <trkpt lat="36.150363" lon="-86.815227">
        <ele>162.137499</ele>
        <time>2024-05-19T07:34:27.000Z</time>
      </trkpt>
      <trkpt lat="36.15058" lon="-86.815186">
        <ele>162.020904</ele>
        <time>2024-05-19T07:34:29.000Z</time>
      </trkpt>
      <trkpt lat="36.150773" lon="-86.815191">
        <ele>161.755216</ele>
        <time>2024-05-19T07:34:31.000Z</time>
      </trkpt>
      <trkpt lat="36.151027" lon="-86.815275">
        <ele>161.423512</ele>
        <time>2024-05-19T07:34:34.000Z</time>
      </trkpt>
      <trkpt lat="36.151298" lon="-86.815381">
        <ele>161.044428</ele>
        <time>2024-05-19T07:34:37.000Z</time>
      </trkpt>
      <trkpt lat="36.151413" lon="-86.815363">
        <ele>160.893077</ele>
        <time>2024-05-19T07:34:38.000Z</time>
      </trkpt>
      <trkpt lat="36.151505" lon="-86.815282">
        <ele>160.742263</ele>
        <time>2024-05-19T07:34:39.000Z</time>
      </trkpt>
      <trkpt lat="36.15161" lon="-86.815053">
        <ele>160.460344</ele>
        <time>2024-05-19T07:34:41.000Z</time>
      </trkpt>
      <trkpt lat="36.151745" lon="-86.814726">
        <ele>160.05889</ele>
        <time>2024-05-19T07:34:44.000Z</time>
      </trkpt>
      <trkpt lat="36.151945" lon="-86.814414">
        <ele>159.667506</ele>
        <time>2024-05-19T07:34:48.000Z</time>
      </trkpt>
      <trkpt lat="36.152175" lon="-86.814069">
        <ele>159.644506</ele>
        <time>2024-05-19T07:34:52.000Z</time>
      </trkpt>
      <trkpt lat="36.152285" lon="-86.813917">
        <ele>159.633665</ele>
        <time>2024-05-19T07:34:54.000Z</time>
      </trkpt>
      <trkpt lat="36.152329" lon="-86.813866">
        <ele>159.62868</ele>
        <time>2024-05-19T07:34:55.000Z</time>
      </trkpt>
      <trkpt lat="36.152511" lon="-86.813747">
        <ele>159.615794</ele>
        <time>2024-05-19T07:34:57.000Z</time>
      </trkpt>
      <trkpt lat="36.152515" lon="-86.813903">
        <ele>159.607289</ele>
        <time>2024-05-19T07:34:58.000Z</time>
      </trkpt>
      <trkpt lat="36.152555" lon="-86.813989">
        <ele>159.602279</ele>
        <time>2024-05-19T07:34:59.000Z</time>
      </trkpt>
      <trkpt lat="36.152793" lon="-86.814263">
        <ele>159.580962</ele>
        <time>2024-05-19T07:35:03.000Z</time>
      </trkpt>
      <trkpt lat="36.152618" lon="-86.814478">
        <ele>159.564438</ele>
        <time>2024-05-19T07:35:06.000Z</time>
      </trkpt>
      <trkpt lat="36.151986" lon="-86.815308">
        <ele>161.126668</ele>
        <time>2024-05-19T07:35:16.000Z</time>
      </trkpt>
      <trkpt lat="36.15154" lon="-86.815883">
        <ele>162.543206</ele>
        <time>2024-05-19T07:35:23.000Z</time>
      </trkpt>
      <trkpt lat="36.151091" lon="-86.816473">
        <ele>164.750706</ele>
        <time>2024-05-19T07:35:30.000Z</time>
      </trkpt>
      <trkpt lat="36.150452" lon="-86.817291">
        <ele>169.823582</ele>
        <time>2024-05-19T07:35:40.000Z</time>
      </trkpt>
      <trkpt lat="36.149992" lon="-86.817823">
        <ele>173.254827</ele>
        <time>2024-05-19T07:35:47.000Z</time>
      </trkpt>
      <trkpt lat="36.1499" lon="-86.81794">
        <ele>173.873582</ele>
        <time>2024-05-19T07:35:48.000Z</time>
      </trkpt>
      <trkpt lat="36.149799" lon="-86.818051">
        <ele>174.384177</ele>
        <time>2024-05-19T07:35:50.000Z</time>
      </trkpt>
      <trkpt lat="36.149392" lon="-86.818513">
        <ele>176.804614</ele>
        <time>2024-05-19T07:35:56.000Z</time>
      </trkpt>
      <trkpt lat="36.14896" lon="-86.818984">
        <ele>179.306902</ele>
        <time>2024-05-19T07:36:02.000Z</time>
      </trkpt>
      <trkpt lat="36.148553" lon="-86.819488">
        <ele>180.878188</ele>
        <time>2024-05-19T07:36:08.000Z</time>
      </trkpt>
      <trkpt lat="36.148474" lon="-86.819578">
        <ele>180.73639</ele>
        <time>2024-05-19T07:36:09.000Z</time>
      </trkpt>
      <trkpt lat="36.148177" lon="-86.819833">
        <ele>180.2283</ele>
        <time>2024-05-19T07:36:13.000Z</time>
      </trkpt>
      <trkpt lat="36.148018" lon="-86.819943">
        <ele>179.978652</ele>
        <time>2024-05-19T07:36:15.000Z</time>
      </trkpt>
      <trkpt lat="36.147934" lon="-86.820037">
        <ele>179.81067</ele>
        <time>2024-05-19T07:36:16.000Z</time>
      </trkpt>
      <trkpt lat="36.147542" lon="-86.820696">
        <ele>178.912925</ele>
        <time>2024-05-19T07:36:23.000Z</time>
      </trkpt>
      <trkpt lat="36.147459" lon="-86.820653">
        <ele>178.779996</ele>
        <time>2024-05-19T07:36:24.000Z</time>
      </trkpt>
      <trkpt lat="36.147453" lon="-86.820632">
        <ele>178.755993</ele>
        <time>2024-05-19T07:36:24.000Z</time>
      </trkpt>
      <trkpt lat="36.147061" lon="-86.820348">
        <ele>178.058729</ele>
        <time>2024-05-19T07:36:29.000Z</time>
      </trkpt>
      <trkpt lat="36.146684" lon="-86.820053">
        <ele>177.339097</ele>
        <time>2024-05-19T07:36:34.000Z</time>
      </trkpt>
      <trkpt lat="36.146639" lon="-86.820014">
        <ele>177.2617</ele>
        <time>2024-05-19T07:36:35.000Z</time>
      </trkpt>
      <trkpt lat="36.146583" lon="-86.819973">
        <ele>177.148987</ele>
        <time>2024-05-19T07:36:36.000Z</time>
      </trkpt>
      <trkpt lat="36.146215" lon="-86.819696">
        <ele>176.479667</ele>
        <time>2024-05-19T07:36:41.000Z</time>
      </trkpt>
      <trkpt lat="36.145862" lon="-86.819395">
        <ele>175.780536</ele>
        <time>2024-05-19T07:36:46.000Z</time>
      </trkpt>
      <trkpt lat="36.145794" lon="-86.819334">
        <ele>175.888586</ele>
        <time>2024-05-19T07:36:47.000Z</time>
      </trkpt>
      <trkpt lat="36.145289" lon="-86.819744">
        <ele>177.104417</ele>
        <time>2024-05-19T07:36:54.000Z</time>
      </trkpt>
      <trkpt lat="36.145064" lon="-86.819905">
        <ele>177.644296</ele>
        <time>2024-05-19T07:36:57.000Z</time>
      </trkpt>
      <trkpt lat="36.144884" lon="-86.82007">
        <ele>178.115389</ele>
        <time>2024-05-19T07:36:59.000Z</time>
      </trkpt>
      <trkpt lat="36.144643" lon="-86.820256">
        <ele>178.698935</ele>
        <time>2024-05-19T07:37:02.000Z</time>
      </trkpt>
      <trkpt lat="36.144146" lon="-86.820627">
        <ele>179.729991</ele>
        <time>2024-05-19T07:37:08.000Z</time>
      </trkpt>
      <trkpt lat="36.143976" lon="-86.820698">
        <ele>179.964699</ele>
        <time>2024-05-19T07:37:10.000Z</time>
      </trkpt>
      <trkpt lat="36.143174" lon="-86.820748">
        <ele>181.010445</ele>
        <time>2024-05-19T07:37:19.000Z</time>
      </trkpt>
      <trkpt lat="36.143168" lon="-86.8211">
        <ele>181.4003</ele>
        <time>2024-05-19T07:37:22.000Z</time>
      </trkpt>
      <trkpt lat="36.143136" lon="-86.821382">
        <ele>181.701396</ele>
        <time>2024-05-19T07:37:25.000Z</time>
      </trkpt>
      <trkpt lat="36.143086" lon="-86.821731">
        <ele>180.760799</ele>
        <time>2024-05-19T07:37:28.000Z</time>
      </trkpt>
      <trkpt lat="36.143039" lon="-86.822032">
        <ele>179.524656</ele>
        <time>2024-05-19T07:37:31.000Z</time>
      </trkpt>
      <trkpt lat="36.143035" lon="-86.822068">
        <ele>179.321688</ele>
        <time>2024-05-19T07:37:31.000Z</time>
      </trkpt>
      <trkpt lat="36.14301" lon="-86.822111">
        <ele>179.135963</ele>
        <time>2024-05-19T07:37:31.000Z</time>
      </trkpt>
      <trkpt lat="36.142998" lon="-86.822439">
        <ele>177.809332</ele>
        <time>2024-05-19T07:37:34.000Z</time>
      </trkpt>
      <trkpt lat="36.143162" lon="-86.823043">
        <ele>175.222623</ele>
        <time>2024-05-19T07:37:40.000Z</time>
      </trkpt>
      <trkpt lat="36.143218" lon="-86.823274">
        <ele>174.206664</ele>
        <time>2024-05-19T07:37:42.000Z</time>
      </trkpt>
      <trkpt lat="36.143237" lon="-86.823345">
        <ele>173.887893</ele>
        <time>2024-05-19T07:37:43.000Z</time>
      </trkpt>
      <trkpt lat="36.143584" lon="-86.824637">
        <ele>168.462218</ele>
        <time>2024-05-19T07:37:55.000Z</time>
      </trkpt>
      <trkpt lat="36.143562" lon="-86.824846">
        <ele>167.591367</ele>
        <time>2024-05-19T07:37:57.000Z</time>
      </trkpt>
      <trkpt lat="36.14352" lon="-86.824931">
        <ele>167.21877</ele>
        <time>2024-05-19T07:37:58.000Z</time>
      </trkpt>
      <trkpt lat="36.143413" lon="-86.825033">
        <ele>166.548938</ele>
        <time>2024-05-19T07:38:00.000Z</time>
      </trkpt>
      <trkpt lat="36.142689" lon="-86.825482">
        <ele>163.688606</ele>
        <time>2024-05-19T07:38:09.000Z</time>
      </trkpt>
      <trkpt lat="36.142512" lon="-86.825574">
        <ele>163.605657</ele>
        <time>2024-05-19T07:38:11.000Z</time>
      </trkpt>
      <trkpt lat="36.142106" lon="-86.825795">
        <ele>163.399168</ele>
        <time>2024-05-19T07:38:16.000Z</time>
      </trkpt>
      <trkpt lat="36.141864" lon="-86.825941">
        <ele>163.270761</ele>
        <time>2024-05-19T07:38:19.000Z</time>
      </trkpt>
      <trkpt lat="36.140822" lon="-86.826979">
        <ele>162.325522</ele>
        <time>2024-05-19T07:38:34.000Z</time>
      </trkpt>
      <trkpt lat="36.140446" lon="-86.827315">
        <ele>161.891374</ele>
        <time>2024-05-19T07:38:39.000Z</time>
      </trkpt>
      <trkpt lat="36.140235" lon="-86.827481">
        <ele>161.649672</ele>
        <time>2024-05-19T07:38:42.000Z</time>
      </trkpt>
      <trkpt lat="36.140176" lon="-86.827539">
        <ele>161.58624</ele>
        <time>2024-05-19T07:38:43.000Z</time>
      </trkpt>
      <trkpt lat="36.140299" lon="-86.828741">
        <ele>158.94534</ele>
        <time>2024-05-19T07:38:54.000Z</time>
      </trkpt>
      <trkpt lat="36.1403" lon="-86.828875">
        <ele>158.559782</ele>
        <time>2024-05-19T07:38:55.000Z</time>
      </trkpt>
      <trkpt lat="36.140328" lon="-86.829207">
        <ele>157.602648</ele>
        <time>2024-05-19T07:38:58.000Z</time>
      </trkpt>
      <trkpt lat="36.140371" lon="-86.829671">
        <ele>156.248904</ele>
        <time>2024-05-19T07:39:02.000Z</time>
      </trkpt>
      <trkpt lat="36.140399" lon="-86.829939">
        <ele>155.434058</ele>
        <time>2024-05-19T07:39:04.000Z</time>
      </trkpt>
      <trkpt lat="36.140456" lon="-86.830501">
        <ele>153.976721</ele>
        <time>2024-05-19T07:39:09.000Z</time>
      </trkpt>
      <trkpt lat="36.14057" lon="-86.83179">
        <ele>150.860661</ele>
        <time>2024-05-19T07:39:21.000Z</time>
      </trkpt>
      <trkpt lat="36.140611" lon="-86.832178">
        <ele>149.929682</ele>
        <time>2024-05-19T07:39:25.000Z</time>
      </trkpt>
      <trkpt lat="36.140703" lon="-86.833082">
        <ele>148.598074</ele>
        <time>2024-05-19T07:39:33.000Z</time>
      </trkpt>
      <trkpt lat="36.140785" lon="-86.834046">
        <ele>147.44844</ele>
        <time>2024-05-19T07:39:42.000Z</time>
      </trkpt>
      <trkpt lat="36.140895" lon="-86.835068">
        <ele>146.473131</ele>
        <time>2024-05-19T07:39:51.000Z</time>
      </trkpt>
      <trkpt lat="36.14092" lon="-86.83569">
        <ele>146.023608</ele>
        <time>2024-05-19T07:39:57.000Z</time>
      </trkpt>
      <trkpt lat="36.140941" lon="-86.837408">
        <ele>144.875548</ele>
        <time>2024-05-19T07:40:12.000Z</time>
      </trkpt>
      <trkpt lat="36.140956" lon="-86.838351">
        <ele>144.322473</ele>
        <time>2024-05-19T07:40:20.000Z</time>
      </trkpt>
      <trkpt lat="36.140976" lon="-86.839086">
        <ele>143.913916</ele>
        <time>2024-05-19T07:40:27.000Z</time>
      </trkpt>
      <trkpt lat="36.140983" lon="-86.839165">
        <ele>143.889718</ele>
        <time>2024-05-19T07:40:28.000Z</time>
      </trkpt>
      <trkpt lat="36.140973" lon="-86.839341">
        <ele>143.831638</ele>
        <time>2024-05-19T07:40:30.000Z</time>
      </trkpt>
      <trkpt lat="36.140993" lon="-86.839745">
        <ele>143.700344</ele>
        <time>2024-05-19T07:40:34.000Z</time>
      </trkpt>
      <trkpt lat="36.141008" lon="-86.840363">
        <ele>143.501014</ele>
        <time>2024-05-19T07:40:40.000Z</time>
      </trkpt>
      <trkpt lat="36.141005" lon="-86.840456">
        <ele>143.473911</ele>
        <time>2024-05-19T07:40:41.000Z</time>
      </trkpt>
      <trkpt lat="36.14104" lon="-86.840494">
        <ele>143.452689</ele>
        <time>2024-05-19T07:40:42.000Z</time>
      </trkpt>
      <trkpt lat="36.141059" lon="-86.840847">
        <ele>143.343086</ele>
        <time>2024-05-19T07:40:45.000Z</time>
      </trkpt>
      <trkpt lat="36.141104" lon="-86.840931">
        <ele>143.309462</ele>
        <time>2024-05-19T07:40:46.000Z</time>
      </trkpt>
      <trkpt lat="36.141139" lon="-86.84097">
        <ele>143.289243</ele>
        <time>2024-05-19T07:40:47.000Z</time>
      </trkpt>
      <trkpt lat="36.141177" lon="-86.841046">
        <ele>143.25866</ele>
        <time>2024-05-19T07:40:48.000Z</time>
      </trkpt>
      <trkpt lat="36.141181" lon="-86.841077">
        <ele>143.2475</ele>
        <time>2024-05-19T07:40:48.000Z</time>
      </trkpt>
      <trkpt lat="36.141271" lon="-86.841167">
        <ele>143.23475</ele>
        <time>2024-05-19T07:40:49.000Z</time>
      </trkpt>
      <trkpt lat="36.141337" lon="-86.841315">
        <ele>143.303812</ele>
        <time>2024-05-19T07:40:51.000Z</time>
      </trkpt>
      <trkpt lat="36.1414" lon="-86.841391">
        <ele>143.348172</ele>
        <time>2024-05-19T07:40:52.000Z</time>
      </trkpt>
      <trkpt lat="36.141587" lon="-86.841551">
        <ele>143.465312</ele>
        <time>2024-05-19T07:40:55.000Z</time>
      </trkpt>
      <trkpt lat="36.141824" lon="-86.84167">
        <ele>143.591962</ele>
        <time>2024-05-19T07:40:58.000Z</time>
      </trkpt>
      <trkpt lat="36.142042" lon="-86.841724">
        <ele>143.702185</ele>
        <time>2024-05-19T07:41:00.000Z</time>
      </trkpt>
      <trkpt lat="36.142179" lon="-86.84172">
        <ele>143.774552</ele>
        <time>2024-05-19T07:41:02.000Z</time>
      </trkpt>
      <trkpt lat="36.142279" lon="-86.841743">
        <ele>143.823659</ele>
        <time>2024-05-19T07:41:03.000Z</time>
      </trkpt>
      <trkpt lat="36.142805" lon="-86.841767">
        <ele>144.087352</ele>
        <time>2024-05-19T07:41:09.000Z</time>
      </trkpt>
      <trkpt lat="36.143275" lon="-86.841781">
        <ele>144.316388</ele>
        <time>2024-05-19T07:41:14.000Z</time>
      </trkpt>
      <trkpt lat="36.143338" lon="-86.841787">
        <ele>144.344387</ele>
        <time>2024-05-19T07:41:15.000Z</time>
      </trkpt>
      <trkpt lat="36.143886" lon="-86.841817">
        <ele>144.601756</ele>
        <time>2024-05-19T07:41:21.000Z</time>
      </trkpt>
      <trkpt lat="36.144402" lon="-86.841843">
        <ele>144.851651</ele>
        <time>2024-05-19T07:41:27.000Z</time>
      </trkpt>
      <trkpt lat="36.144486" lon="-86.841854">
        <ele>144.892529</ele>
        <time>2024-05-19T07:41:28.000Z</time>
      </trkpt>
      <trkpt lat="36.144948" lon="-86.841869">
        <ele>144.943856</ele>
        <time>2024-05-19T07:41:33.000Z</time>
      </trkpt>
      <trkpt lat="36.14554" lon="-86.84189">
        <ele>144.860369</ele>
        <time>2024-05-19T07:41:40.000Z</time>
      </trkpt>
      <trkpt lat="36.146063" lon="-86.841918">
        <ele>144.78437</ele>
        <time>2024-05-19T07:41:46.000Z</time>
      </trkpt>
      <trkpt lat="36.146592" lon="-86.84195">
        <ele>144.894223</ele>
        <time>2024-05-19T07:41:52.000Z</time>
      </trkpt>
      <trkpt lat="36.147121" lon="-86.841967">
        <ele>145.626686</ele>
        <time>2024-05-19T07:41:58.000Z</time>
      </trkpt>
      <trkpt lat="36.147627" lon="-86.842001">
        <ele>146.342786</ele>
        <time>2024-05-19T07:42:04.000Z</time>
      </trkpt>
      <trkpt lat="36.148142" lon="-86.842024">
        <ele>147.076641</ele>
        <time>2024-05-19T07:42:10.000Z</time>
      </trkpt>
      <trkpt lat="36.148713" lon="-86.84204">
        <ele>148.026292</ele>
        <time>2024-05-19T07:42:16.000Z</time>
      </trkpt>
      <trkpt lat="36.149339" lon="-86.842066">
        <ele>149.171176</ele>
        <time>2024-05-19T07:42:23.000Z</time>
      </trkpt>
      <trkpt lat="36.149964" lon="-86.842088">
        <ele>150.29802</ele>
        <time>2024-05-19T07:42:30.000Z</time>
      </trkpt>
      <trkpt lat="36.150511" lon="-86.842118">
        <ele>150.941936</ele>
        <time>2024-05-19T07:42:36.000Z</time>
      </trkpt>
      <trkpt lat="36.151093" lon="-86.842162">
        <ele>151.51463</ele>
        <time>2024-05-19T07:42:42.000Z</time>
      </trkpt>
      <trkpt lat="36.151628" lon="-86.842189">
        <ele>152.052621</ele>
        <time>2024-05-19T07:42:48.000Z</time>
      </trkpt>
      <trkpt lat="36.151736" lon="-86.84219">
        <ele>152.164627</ele>
        <time>2024-05-19T07:42:49.000Z</time>
      </trkpt>
      <trkpt lat="36.151994" lon="-86.842199">
        <ele>152.515718</ele>
        <time>2024-05-19T07:42:52.000Z</time>
      </trkpt>
      <trkpt lat="36.152099" lon="-86.8422">
        <ele>152.698282</ele>
        <time>2024-05-19T07:42:53.000Z</time>
      </trkpt>
      <trkpt lat="36.152187" lon="-86.842209">
        <ele>152.870523</ele>
        <time>2024-05-19T07:42:54.000Z</time>
      </trkpt>
      <trkpt lat="36.152205" lon="-86.842154">
        <ele>152.964698</ele>
        <time>2024-05-19T07:42:55.000Z</time>
      </trkpt>
      <trkpt lat="36.152213" lon="-86.84146">
        <ele>153.933534</ele>
        <time>2024-05-19T07:43:01.000Z</time>
      </trkpt>
      <trkpt lat="36.152233" lon="-86.84091">
        <ele>154.695034</ele>
        <time>2024-05-19T07:43:06.000Z</time>
      </trkpt>
      <trkpt lat="36.152243" lon="-86.84076">
        <ele>154.913997</ele>
        <time>2024-05-19T07:43:07.000Z</time>
      </trkpt>
      <trkpt lat="36.152246" lon="-86.840623">
        <ele>155.110809</ele>
        <time>2024-05-19T07:43:08.000Z</time>
      </trkpt>
      <trkpt lat="36.152268" lon="-86.840314">
        <ele>155.522359</ele>
        <time>2024-05-19T07:43:11.000Z</time>
      </trkpt>
      <trkpt lat="36.152272" lon="-86.840073">
        <ele>155.816032</ele>
        <time>2024-05-19T07:43:13.000Z</time>
      </trkpt>
      <trkpt lat="36.152279" lon="-86.839583">
        <ele>156.399802</ele>
        <time>2024-05-19T07:43:17.000Z</time>
      </trkpt>
      <trkpt lat="36.152299" lon="-86.839106">
        <ele>156.978658</ele>
        <time>2024-05-19T07:43:21.000Z</time>
      </trkpt>
      <trkpt lat="36.152309" lon="-86.838744">
        <ele>157.420305</ele>
        <time>2024-05-19T07:43:24.000Z</time>
      </trkpt>
      <trkpt lat="36.152329" lon="-86.838361">
        <ele>157.878843</ele>
        <time>2024-05-19T07:43:27.000Z</time>
      </trkpt>
      <trkpt lat="36.152338" lon="-86.837842">
        <ele>158.380666</ele>
        <time>2024-05-19T07:43:32.000Z</time>
      </trkpt>
      <trkpt lat="36.152348" lon="-86.837624">
        <ele>158.563806</ele>
        <time>2024-05-19T07:43:34.000Z</time>
      </trkpt>
      <trkpt lat="36.152358" lon="-86.837152">
        <ele>158.945258</ele>
        <time>2024-05-19T07:43:38.000Z</time>
      </trkpt>
      <trkpt lat="36.152369" lon="-86.837053">
        <ele>159.039961</ele>
        <time>2024-05-19T07:43:39.000Z</time>
      </trkpt>
      <trkpt lat="36.152391" lon="-86.836897">
        <ele>159.15766</ele>
        <time>2024-05-19T07:43:40.000Z</time>
      </trkpt>
      <trkpt lat="36.152408" lon="-86.83632">
        <ele>159.643344</ele>
        <time>2024-05-19T07:43:45.000Z</time>
      </trkpt>
      <trkpt lat="36.152447" lon="-86.834837">
        <ele>162.012235</ele>
        <time>2024-05-19T07:43:58.000Z</time>
      </trkpt>
      <trkpt lat="36.152478" lon="-86.833849">
        <ele>163.856696</ele>
        <time>2024-05-19T07:44:07.000Z</time>
      </trkpt>
      <trkpt lat="36.152489" lon="-86.833637">
        <ele>164.277312</ele>
        <time>2024-05-19T07:44:09.000Z</time>
      </trkpt>
      <trkpt lat="36.15249" lon="-86.833261">
        <ele>165.140057</ele>
        <time>2024-05-19T07:44:12.000Z</time>
      </trkpt>
      <trkpt lat="36.152508" lon="-86.833031">
        <ele>165.679268</ele>
        <time>2024-05-19T07:44:14.000Z</time>
      </trkpt>
      <trkpt lat="36.152528" lon="-86.832514">
        <ele>166.921069</ele>
        <time>2024-05-19T07:44:19.000Z</time>
      </trkpt>
      <trkpt lat="36.152607" lon="-86.831191">
        <ele>169.930165</ele>
        <time>2024-05-19T07:44:31.000Z</time>
      </trkpt>
      <trkpt lat="36.152628" lon="-86.830966">
        <ele>170.432953</ele>
        <time>2024-05-19T07:44:33.000Z</time>
      </trkpt>
      <trkpt lat="36.152649" lon="-86.830197">
        <ele>172.061841</ele>
        <time>2024-05-19T07:44:40.000Z</time>
      </trkpt>
      <trkpt lat="36.152706" lon="-86.82884">
        <ele>175.012448</ele>
        <time>2024-05-19T07:44:52.000Z</time>
      </trkpt>
      <trkpt lat="36.152731" lon="-86.828269">
        <ele>176.301226</ele>
        <time>2024-05-19T07:44:57.000Z</time>
      </trkpt>
      <trkpt lat="36.152741" lon="-86.828192">
        <ele>176.483006</ele>
        <time>2024-05-19T07:44:58.000Z</time>
      </trkpt>
      <trkpt lat="36.152745" lon="-86.827779">
        <ele>177.439323</ele>
        <time>2024-05-19T07:45:02.000Z</time>
      </trkpt>
      <trkpt lat="36.152774" lon="-86.826691">
        <ele>179.472743</ele>
        <time>2024-05-19T07:45:12.000Z</time>
      </trkpt>
      <trkpt lat="36.152782" lon="-86.825964">
        <ele>180.256433</ele>
        <time>2024-05-19T07:45:19.000Z</time>
      </trkpt>
      <trkpt lat="36.15282" lon="-86.824846">
        <ele>181.469584</ele>
        <time>2024-05-19T07:45:29.000Z</time>
      </trkpt>
      <trkpt lat="36.152843" lon="-86.824172">
        <ele>180.012311</ele>
        <time>2024-05-19T07:45:35.000Z</time>
      </trkpt>
      <trkpt lat="36.152841" lon="-86.824119">
        <ele>179.857914</ele>
        <time>2024-05-19T07:45:35.000Z</time>
      </trkpt>
      <trkpt lat="36.15287" lon="-86.823532">
        <ele>178.512979</ele>
        <time>2024-05-19T07:45:40.000Z</time>
      </trkpt>
      <trkpt lat="36.153046" lon="-86.822349">
        <ele>175.435505</ele>
        <time>2024-05-19T07:45:51.000Z</time>
      </trkpt>
      <trkpt lat="36.1533" lon="-86.821175">
        <ele>171.434589</ele>
        <time>2024-05-19T07:46:02.000Z</time>
      </trkpt>
      <trkpt lat="36.153349" lon="-86.820951">
        <ele>170.661956</ele>
        <time>2024-05-19T07:46:04.000Z</time>
      </trkpt>
      <trkpt lat="36.153372" lon="-86.820843">
        <ele>170.335131</ele>
        <time>2024-05-19T07:46:05.000Z</time>
      </trkpt>
      <trkpt lat="36.153401" lon="-86.820677">
        <ele>169.768107</ele>
        <time>2024-05-19T07:46:07.000Z</time>
      </trkpt>
      <trkpt lat="36.153656" lon="-86.819616">
        <ele>167.573713</ele>
        <time>2024-05-19T07:46:17.000Z</time>
      </trkpt>
      <trkpt lat="36.153927" lon="-86.818298">
        <ele>165.389506</ele>
        <time>2024-05-19T07:46:29.000Z</time>
      </trkpt>
      <trkpt lat="36.153948" lon="-86.818174">
        <ele>165.341082</ele>
        <time>2024-05-19T07:46:30.000Z</time>
      </trkpt>
      <trkpt lat="36.153816" lon="-86.818122">
        <ele>165.285732</ele>
        <time>2024-05-19T07:46:32.000Z</time>
      </trkpt>
      <trkpt lat="36.153534" lon="-86.81809">
        <ele>165.175069</ele>
        <time>2024-05-19T07:46:35.000Z</time>
      </trkpt>
      <trkpt lat="36.153355" lon="-86.818122">
        <ele>165.095916</ele>
        <time>2024-05-19T07:46:37.000Z</time>
      </trkpt>
      <trkpt lat="36.152962" lon="-86.818236">
        <ele>164.940347</ele>
        <time>2024-05-19T07:46:41.000Z</time>
      </trkpt>
      <trkpt lat="36.152621" lon="-86.818357">
        <ele>164.799915</ele>
        <time>2024-05-19T07:46:45.000Z</time>
      </trkpt>
      <trkpt lat="36.152507" lon="-86.818443">
        <ele>164.745903</ele>
        <time>2024-05-19T07:46:46.000Z</time>
      </trkpt>
      <trkpt lat="36.152388" lon="-86.81852">
        <ele>164.694927</ele>
        <time>2024-05-19T07:46:47.000Z</time>
      </trkpt>
      <trkpt lat="36.152098" lon="-86.818759">
        <ele>165.290226</ele>
        <time>2024-05-19T07:46:51.000Z</time>
      </trkpt>
      <trkpt lat="36.151629" lon="-86.819123">
        <ele>166.499137</ele>
        <time>2024-05-19T07:46:57.000Z</time>
      </trkpt>
      <trkpt lat="36.151363" lon="-86.819204">
        <ele>167.098667</ele>
        <time>2024-05-19T07:47:00.000Z</time>
      </trkpt>
      <trkpt lat="36.151123" lon="-86.819176">
        <ele>167.619947</ele>
        <time>2024-05-19T07:47:03.000Z</time>
      </trkpt>
      <trkpt lat="36.150965" lon="-86.819111">
        <ele>168.001816</ele>
        <time>2024-05-19T07:47:05.000Z</time>
      </trkpt>
      <trkpt lat="36.150813" lon="-86.818995">
        <ele>168.385095</ele>
        <time>2024-05-19T07:47:07.000Z</time>
      </trkpt>
      <trkpt lat="36.150444" lon="-86.818562">
        <ele>170.780776</ele>
        <time>2024-05-19T07:47:13.000Z</time>
      </trkpt>
      <trkpt lat="36.15041" lon="-86.818528">
        <ele>171.041332</ele>
        <time>2024-05-19T07:47:13.000Z</time>
      </trkpt>
      <trkpt lat="36.150292" lon="-86.818386">
        <ele>171.863535</ele>
        <time>2024-05-19T07:47:15.000Z</time>
      </trkpt>
      <trkpt lat="36.149946" lon="-86.818009">
        <ele>174.251001</ele>
        <time>2024-05-19T07:47:20.000Z</time>
      </trkpt>
      <trkpt lat="36.149903" lon="-86.817954">
        <ele>174.675603</ele>
        <time>2024-05-19T07:47:21.000Z</time>
      </trkpt>
      <trkpt lat="36.149816" lon="-86.818044">
        <ele>175.299098</ele>
        <time>2024-05-19T07:47:22.000Z</time>
      </trkpt>
      <trkpt lat="36.149389" lon="-86.818508">
        <ele>178.124331</ele>
        <time>2024-05-19T07:47:28.000Z</time>
      </trkpt>
      <trkpt lat="36.148951" lon="-86.818986">
        <ele>179.100367</ele>
        <time>2024-05-19T07:47:34.000Z</time>
      </trkpt>
      <trkpt lat="36.148564" lon="-86.81949">
        <ele>180.069086</ele>
        <time>2024-05-19T07:47:40.000Z</time>
      </trkpt>
      <trkpt lat="36.148481" lon="-86.819577">
        <ele>180.242425</ele>
        <time>2024-05-19T07:47:41.000Z</time>
      </trkpt>
      <trkpt lat="36.14817" lon="-86.81983">
        <ele>180.863667</ele>
        <time>2024-05-19T07:47:45.000Z</time>
      </trkpt>
      <trkpt lat="36.148011" lon="-86.819941">
        <ele>180.97655</ele>
        <time>2024-05-19T07:47:47.000Z</time>
      </trkpt>
      <trkpt lat="36.147924" lon="-86.820045">
        <ele>180.68075</ele>
        <time>2024-05-19T07:47:48.000Z</time>
      </trkpt>
      <trkpt lat="36.147551" lon="-86.820702">
        <ele>179.099982</ele>
        <time>2024-05-19T07:47:55.000Z</time>
      </trkpt>
      <trkpt lat="36.147458" lon="-86.820647">
        <ele>178.865929</ele>
        <time>2024-05-19T07:47:56.000Z</time>
      </trkpt>
      <trkpt lat="36.147451" lon="-86.82063">
        <ele>178.823683</ele>
        <time>2024-05-19T07:47:56.000Z</time>
      </trkpt>
      <trkpt lat="36.147067" lon="-86.820365">
        <ele>177.733071</ele>
        <time>2024-05-19T07:48:01.000Z</time>
      </trkpt>
      <trkpt lat="36.146689" lon="-86.820049">
        <ele>176.726366</ele>
        <time>2024-05-19T07:48:06.000Z</time>
      </trkpt>
      <trkpt lat="36.146637" lon="-86.82002">
        <ele>176.720525</ele>
        <time>2024-05-19T07:48:07.000Z</time>
      </trkpt>
      <trkpt lat="36.14658" lon="-86.819978">
        <ele>176.712029</ele>
        <time>2024-05-19T07:48:08.000Z</time>
      </trkpt>
      <trkpt lat="36.146215" lon="-86.819711">
        <ele>176.661479</ele>
        <time>2024-05-19T07:48:13.000Z</time>
      </trkpt>
      <trkpt lat="36.145854" lon="-86.819404">
        <ele>176.60869</ele>
        <time>2024-05-19T07:48:18.000Z</time>
      </trkpt>
      <trkpt lat="36.145796" lon="-86.819332">
        <ele>176.598372</ele>
        <time>2024-05-19T07:48:19.000Z</time>
      </trkpt>
      <trkpt lat="36.145289" lon="-86.819745">
        <ele>176.52682</ele>
        <time>2024-05-19T07:48:26.000Z</time>
      </trkpt>
      <trkpt lat="36.145078" lon="-86.819919">
        <ele>176.965264</ele>
        <time>2024-05-19T07:48:29.000Z</time>
      </trkpt>
      <trkpt lat="36.144875" lon="-86.820065">
        <ele>177.625041</ele>
        <time>2024-05-19T07:48:32.000Z</time>
      </trkpt>
      <trkpt lat="36.144643" lon="-86.820262">
        <ele>178.442274</ele>
        <time>2024-05-19T07:48:35.000Z</time>
      </trkpt>
      <trkpt lat="36.144132" lon="-86.820629">
        <ele>180.112947</ele>
        <time>2024-05-19T07:48:42.000Z</time>
      </trkpt>
      <trkpt lat="36.143964" lon="-86.820685">
        <ele>180.62216</ele>
        <time>2024-05-19T07:48:44.000Z</time>
      </trkpt>
      <trkpt lat="36.143178" lon="-86.820742">
        <ele>181.034997</ele>
        <time>2024-05-19T07:48:53.000Z</time>
      </trkpt>
      <trkpt lat="36.143165" lon="-86.821096">
        <ele>180.591349</ele>
        <time>2024-05-19T07:48:56.000Z</time>
      </trkpt>
      <trkpt lat="36.143141" lon="-86.821389">
        <ele>180.248709</ele>
        <time>2024-05-19T07:48:59.000Z</time>
      </trkpt>
      <trkpt lat="36.143079" lon="-86.821741">
        <ele>179.812477</ele>
        <time>2024-05-19T07:49:02.000Z</time>
      </trkpt>
      <trkpt lat="36.14304" lon="-86.822021">
        <ele>179.449811</ele>
        <time>2024-05-19T07:49:05.000Z</time>
      </trkpt>
      <trkpt lat="36.143018" lon="-86.82208">
        <ele>179.390244</ele>
        <time>2024-05-19T07:49:06.000Z</time>
      </trkpt>
      <trkpt lat="36.143027" lon="-86.822125">
        <ele>179.335772</ele>
        <time>2024-05-19T07:49:06.000Z</time>
      </trkpt>
      <trkpt lat="36.142999" lon="-86.82244">
        <ele>178.881806</ele>
        <time>2024-05-19T07:49:09.000Z</time>
      </trkpt>
      <trkpt lat="36.143163" lon="-86.823032">
        <ele>175.758301</ele>
        <time>2024-05-19T07:49:15.000Z</time>
      </trkpt>
      <trkpt lat="36.143217" lon="-86.823258">
        <ele>174.531515</ele>
        <time>2024-05-19T07:49:17.000Z</time>
      </trkpt>
      <trkpt lat="36.143238" lon="-86.823333">
        <ele>174.146586</ele>
        <time>2024-05-19T07:49:18.000Z</time>
      </trkpt>
      <trkpt lat="36.14359" lon="-86.824623">
        <ele>167.613952</ele>
        <time>2024-05-19T07:49:30.000Z</time>
      </trkpt>
      <trkpt lat="36.143557" lon="-86.824843">
        <ele>167.12057</ele>
        <time>2024-05-19T07:49:32.000Z</time>
      </trkpt>
      <trkpt lat="36.143507" lon="-86.824921">
        <ele>166.90948</ele>
        <time>2024-05-19T07:49:33.000Z</time>
      </trkpt>
      <trkpt lat="36.143403" lon="-86.825031">
        <ele>166.529993</ele>
        <time>2024-05-19T07:49:35.000Z</time>
      </trkpt>
      <trkpt lat="36.142684" lon="-86.825468">
        <ele>164.28892</ele>
        <time>2024-05-19T07:49:44.000Z</time>
      </trkpt>
      <trkpt lat="36.142512" lon="-86.825581">
        <ele>163.789901</ele>
        <time>2024-05-19T07:49:46.000Z</time>
      </trkpt>
      <trkpt lat="36.142103" lon="-86.825796">
        <ele>162.855304</ele>
        <time>2024-05-19T07:49:51.000Z</time>
      </trkpt>
      <trkpt lat="36.141865" lon="-86.825949">
        <ele>162.865666</ele>
        <time>2024-05-19T07:49:54.000Z</time>
      </trkpt>
      <trkpt lat="36.140809" lon="-86.826971">
        <ele>162.915099</ele>
        <time>2024-05-19T07:50:09.000Z</time>
      </trkpt>
      <trkpt lat="36.140454" lon="-86.827313">
        <ele>162.051133</ele>
        <time>2024-05-19T07:50:14.000Z</time>
      </trkpt>
      <trkpt lat="36.140227" lon="-86.82749">
        <ele>161.468037</ele>
        <time>2024-05-19T07:50:17.000Z</time>
      </trkpt>
      <trkpt lat="36.140177" lon="-86.827531">
        <ele>161.315001</ele>
        <time>2024-05-19T07:50:18.000Z</time>
      </trkpt>
      <trkpt lat="36.140298" lon="-86.828731">
        <ele>159.078778</ele>
        <time>2024-05-19T07:50:29.000Z</time>
      </trkpt>
      <trkpt lat="36.140306" lon="-86.828861">
        <ele>158.832536</ele>
        <time>2024-05-19T07:50:30.000Z</time>
      </trkpt>
      <trkpt lat="36.140334" lon="-86.829201">
        <ele>157.846584</ele>
        <time>2024-05-19T07:50:33.000Z</time>
      </trkpt>
      <trkpt lat="36.140373" lon="-86.829659">
        <ele>156.441019</ele>
        <time>2024-05-19T07:50:37.000Z</time>
      </trkpt>
      <trkpt lat="36.140405" lon="-86.829953">
        <ele>155.594991</ele>
        <time>2024-05-19T07:50:40.000Z</time>
      </trkpt>
      <trkpt lat="36.140459" lon="-86.830514">
        <ele>153.90709</ele>
        <time>2024-05-19T07:50:45.000Z</time>
      </trkpt>
      <trkpt lat="36.140583" lon="-86.831794">
        <ele>150.882621</ele>
        <time>2024-05-19T07:50:57.000Z</time>
      </trkpt>
      <trkpt lat="36.14062" lon="-86.832166">
        <ele>150.18466</ele>
        <time>2024-05-19T07:51:00.000Z</time>
      </trkpt>
      <trkpt lat="36.140709" lon="-86.83308">
        <ele>148.504277</ele>
        <time>2024-05-19T07:51:08.000Z</time>
      </trkpt>
      <trkpt lat="36.140802" lon="-86.834057">
        <ele>147.436858</ele>
        <time>2024-05-19T07:51:17.000Z</time>
      </trkpt>
      <trkpt lat="36.140887" lon="-86.835068">
        <ele>146.519375</ele>
        <time>2024-05-19T07:51:26.000Z</time>
      </trkpt>
      <trkpt lat="36.140922" lon="-86.835699">
        <ele>145.995779</ele>
        <time>2024-05-19T07:51:32.000Z</time>
      </trkpt>
      <trkpt lat="36.140947" lon="-86.837402">
        <ele>144.836055</ele>
        <time>2024-05-19T07:51:47.000Z</time>
      </trkpt>
      <trkpt lat="36.140957" lon="-86.838359">
        <ele>144.311574</ele>
        <time>2024-05-19T07:51:56.000Z</time>
      </trkpt>
      <trkpt lat="36.140975" lon="-86.83909">
        <ele>143.95517</ele>
        <time>2024-05-19T07:52:03.000Z</time>
      </trkpt>
      <trkpt lat="36.140985" lon="-86.839172">
        <ele>143.918712</ele>
        <time>2024-05-19T07:52:04.000Z</time>
      </trkpt>
      <trkpt lat="36.140984" lon="-86.839348">
        <ele>143.831219</ele>
        <time>2024-05-19T07:52:06.000Z</time>
      </trkpt>
      <trkpt lat="36.140986" lon="-86.83975">
        <ele>143.633421</ele>
        <time>2024-05-19T07:52:10.000Z</time>
      </trkpt>
      <trkpt lat="36.141014" lon="-86.840372">
        <ele>143.511322</ele>
        <time>2024-05-19T07:52:16.000Z</time>
      </trkpt>
      <trkpt lat="36.141007" lon="-86.840453">
        <ele>143.507696</ele>
        <time>2024-05-19T07:52:17.000Z</time>
      </trkpt>
      <trkpt lat="36.141048" lon="-86.840502">
        <ele>143.504878</ele>
        <time>2024-05-19T07:52:18.000Z</time>
      </trkpt>
      <trkpt lat="36.141066" lon="-86.840845">
        <ele>143.490261</ele>
        <time>2024-05-19T07:52:21.000Z</time>
      </trkpt>
      <trkpt lat="36.141098" lon="-86.840934">
        <ele>143.485767</ele>
        <time>2024-05-19T07:52:22.000Z</time>
      </trkpt>
      <trkpt lat="36.141141" lon="-86.840966">
        <ele>143.483085</ele>
        <time>2024-05-19T07:52:23.000Z</time>
      </trkpt>
      <trkpt lat="36.141187" lon="-86.841052">
        <ele>143.479002</ele>
        <time>2024-05-19T07:52:24.000Z</time>
      </trkpt>
      <trkpt lat="36.141192" lon="-86.841075">
        <ele>143.477523</ele>
        <time>2024-05-19T07:52:24.000Z</time>
      </trkpt>
      <trkpt lat="36.141259" lon="-86.841179">
        <ele>143.47197</ele>
        <time>2024-05-19T07:52:25.000Z</time>
      </trkpt>
      <trkpt lat="36.141348" lon="-86.841316">
        <ele>143.464696</ele>
        <time>2024-05-19T07:52:27.000Z</time>
      </trkpt>
      <trkpt lat="36.141413" lon="-86.841379">
        <ele>143.460023</ele>
        <time>2024-05-19T07:52:28.000Z</time>
      </trkpt>
      <trkpt lat="36.141603" lon="-86.841548">
        <ele>143.447682</ele>
        <time>2024-05-19T07:52:31.000Z</time>
      </trkpt>
      <trkpt lat="36.141829" lon="-86.841665">
        <ele>143.434325</ele>
        <time>2024-05-19T07:52:34.000Z</time>
      </trkpt>
      <trkpt lat="36.142042" lon="-86.841722">
        <ele>143.561808</ele>
        <time>2024-05-19T07:52:36.000Z</time>
      </trkpt>
      <trkpt lat="36.142182" lon="-86.841736">
        <ele>143.659238</ele>
        <time>2024-05-19T07:52:38.000Z</time>
      </trkpt>
      <trkpt lat="36.142286" lon="-86.841729">
        <ele>143.725368</ele>
        <time>2024-05-19T07:52:39.000Z</time>
      </trkpt>
      <trkpt lat="36.142808" lon="-86.841773">
        <ele>144.080344</ele>
        <time>2024-05-19T07:52:45.000Z</time>
      </trkpt>
      <trkpt lat="36.143284" lon="-86.841789">
        <ele>144.405235</ele>
        <time>2024-05-19T07:52:50.000Z</time>
      </trkpt>
      <trkpt lat="36.143329" lon="-86.841789">
        <ele>144.445383</ele>
        <time>2024-05-19T07:52:51.000Z</time>
      </trkpt>
      <trkpt lat="36.143874" lon="-86.84182">
        <ele>144.671649</ele>
        <time>2024-05-19T07:52:57.000Z</time>
      </trkpt>
      <trkpt lat="36.144409" lon="-86.841848">
        <ele>144.705192</ele>
        <time>2024-05-19T07:53:03.000Z</time>
      </trkpt>
      <trkpt lat="36.144495" lon="-86.84185">
        <ele>144.710666</ele>
        <time>2024-05-19T07:53:04.000Z</time>
      </trkpt>
      <trkpt lat="36.144936" lon="-86.841858">
        <ele>144.73953</ele>
        <time>2024-05-19T07:53:09.000Z</time>
      </trkpt>
      <trkpt lat="36.145536" lon="-86.84189">
        <ele>144.803868</ele>
        <time>2024-05-19T07:53:16.000Z</time>
      </trkpt>
      <trkpt lat="36.146067" lon="-86.841913">
        <ele>145.001154</ele>
        <time>2024-05-19T07:53:22.000Z</time>
      </trkpt>
      <trkpt lat="36.146587" lon="-86.841953">
        <ele>145.194838</ele>
        <time>2024-05-19T07:53:28.000Z</time>
      </trkpt>
      <trkpt lat="36.147117" lon="-86.841972">
        <ele>145.386966</ele>
        <time>2024-05-19T07:53:34.000Z</time>
      </trkpt>
      <trkpt lat="36.147634" lon="-86.842007">
        <ele>146.158037</ele>
        <time>2024-05-19T07:53:40.000Z</time>
      </trkpt>
      <trkpt lat="36.148156" lon="-86.842023">
        <ele>147.142256</ele>
        <time>2024-05-19T07:53:46.000Z</time>
      </trkpt>
      <trkpt lat="36.148703" lon="-86.842038">
        <ele>148.18449</ele>
        <time>2024-05-19T07:53:52.000Z</time>
      </trkpt>
      <trkpt lat="36.149338" lon="-86.84208">
        <ele>149.224219</ele>
        <time>2024-05-19T07:53:59.000Z</time>
      </trkpt>
      <trkpt lat="36.149968" lon="-86.842097">
        <ele>150.076852</ele>
        <time>2024-05-19T07:54:06.000Z</time>
      </trkpt>
      <trkpt lat="36.150523" lon="-86.842127">
        <ele>150.833019</ele>
        <time>2024-05-19T07:54:12.000Z</time>
      </trkpt>
      <trkpt lat="36.151095" lon="-86.842166">
        <ele>151.570025</ele>
        <time>2024-05-19T07:54:18.000Z</time>
      </trkpt>
      <trkpt lat="36.151623" lon="-86.842199">
        <ele>152.217438</ele>
        <time>2024-05-19T07:54:24.000Z</time>
      </trkpt>
      <trkpt lat="36.151724" lon="-86.842186">
        <ele>152.352231</ele>
        <time>2024-05-19T07:54:25.000Z</time>
      </trkpt>
      <trkpt lat="36.151996" lon="-86.842194">
        <ele>152.667915</ele>
        <time>2024-05-19T07:54:28.000Z</time>
      </trkpt>
      <trkpt lat="36.152094" lon="-86.842205">
        <ele>152.795415</ele>
        <time>2024-05-19T07:54:29.000Z</time>
      </trkpt>
      <trkpt lat="36.152197" lon="-86.84222">
        <ele>152.915721</ele>
        <time>2024-05-19T07:54:30.000Z</time>
      </trkpt>
      <trkpt lat="36.152193" lon="-86.842138">
        <ele>152.981488</ele>
        <time>2024-05-19T07:54:31.000Z</time>
      </trkpt>
      <trkpt lat="36.15221" lon="-86.84145">
        <ele>153.771626</ele>
        <time>2024-05-19T07:54:37.000Z</time>
      </trkpt>
      <trkpt lat="36.152243" lon="-86.84092">
        <ele>154.594947</ele>
        <time>2024-05-19T07:54:42.000Z</time>
      </trkpt>
      <trkpt lat="36.152235" lon="-86.840761">
        <ele>154.831692</ele>
        <time>2024-05-19T07:54:43.000Z</time>
      </trkpt>
      <trkpt lat="36.15224" lon="-86.840622">
        <ele>155.044487</ele>
        <time>2024-05-19T07:54:44.000Z</time>
      </trkpt>
      <trkpt lat="36.152254" lon="-86.84032">
        <ele>155.506164</ele>
        <time>2024-05-19T07:54:47.000Z</time>
      </trkpt>
      <trkpt lat="36.152271" lon="-86.840072">
        <ele>155.876736</ele>
        <time>2024-05-19T07:54:49.000Z</time>
      </trkpt>
      <trkpt lat="36.152285" lon="-86.839586">
        <ele>156.613411</ele>
        <time>2024-05-19T07:54:53.000Z</time>
      </trkpt>
      <trkpt lat="36.152314" lon="-86.839096">
        <ele>157.122267</ele>
        <time>2024-05-19T07:54:57.000Z</time>
      </trkpt>
      <trkpt lat="36.152326" lon="-86.838741">
        <ele>157.438981</ele>
        <time>2024-05-19T07:55:00.000Z</time>
      </trkpt>
      <trkpt lat="36.152329" lon="-86.838362">
        <ele>157.767811</ele>
        <time>2024-05-19T07:55:03.000Z</time>
      </trkpt>
      <trkpt lat="36.152345" lon="-86.837835">
        <ele>158.214658</ele>
        <time>2024-05-19T07:55:08.000Z</time>
      </trkpt>
      <trkpt lat="36.152356" lon="-86.837616">
        <ele>158.404418</ele>
        <time>2024-05-19T07:55:10.000Z</time>
      </trkpt>
      <trkpt lat="36.152366" lon="-86.837159">
        <ele>158.81922</ele>
        <time>2024-05-19T07:55:14.000Z</time>
      </trkpt>
      <trkpt lat="36.152384" lon="-86.837048">
        <ele>158.956886</ele>
        <time>2024-05-19T07:55:15.000Z</time>
      </trkpt>
      <trkpt lat="36.152392" lon="-86.836908">
        <ele>159.127976</ele>
        <time>2024-05-19T07:55:16.000Z</time>
      </trkpt>
      <trkpt lat="36.152416" lon="-86.836322">
        <ele>159.834019</ele>
        <time>2024-05-19T07:55:21.000Z</time>
      </trkpt>
      <trkpt lat="36.152458" lon="-86.834842">
        <ele>161.782887</ele>
        <time>2024-05-19T07:55:34.000Z</time>
      </trkpt>
      <trkpt lat="36.15249" lon="-86.833847">
        <ele>163.961427</ele>
        <time>2024-05-19T07:55:43.000Z</time>
      </trkpt>
      <trkpt lat="36.152493" lon="-86.833631">
        <ele>164.41594</ele>
        <time>2024-05-19T07:55:45.000Z</time>
      </trkpt>
      <trkpt lat="36.152497" lon="-86.833277">
        <ele>165.228304</ele>
        <time>2024-05-19T07:55:48.000Z</time>
      </trkpt>
      <trkpt lat="36.152511" lon="-86.833046">
        <ele>165.736016</ele>
        <time>2024-05-19T07:55:50.000Z</time>
      </trkpt>
      <trkpt lat="36.152529" lon="-86.832511">
        <ele>166.920672</ele>
        <time>2024-05-19T07:55:55.000Z</time>
      </trkpt>
      <trkpt lat="36.152603" lon="-86.831185">
        <ele>169.887801</ele>
        <time>2024-05-19T07:56:07.000Z</time>
      </trkpt>
      <trkpt lat="36.152612" lon="-86.830961">
        <ele>170.419335</ele>
        <time>2024-05-19T07:56:09.000Z</time>
      </trkpt>
      <trkpt lat="36.152658" lon="-86.830196">
        <ele>172.105048</ele>
        <time>2024-05-19T07:56:16.000Z</time>
      </trkpt>
      <trkpt lat="36.152723" lon="-86.828839">
        <ele>175.020336</ele>
        <time>2024-05-19T07:56:28.000Z</time>
      </trkpt>
      <trkpt lat="36.152732" lon="-86.828271">
        <ele>176.238532</ele>
        <time>2024-05-19T07:56:33.000Z</time>
      </trkpt>
      <trkpt lat="36.152728" lon="-86.828189">
        <ele>176.407471</ele>
        <time>2024-05-19T07:56:34.000Z</time>
      </trkpt>
      <trkpt lat="36.152747" lon="-86.827772">
        <ele>177.296298</ele>
        <time>2024-05-19T07:56:38.000Z</time>
      </trkpt>
      <trkpt lat="36.152767" lon="-86.826701">
        <ele>179.570777</ele>
        <time>2024-05-19T07:56:48.000Z</time>
      </trkpt>
      <trkpt lat="36.152787" lon="-86.825973">
        <ele>180.806949</ele>
        <time>2024-05-19T07:56:55.000Z</time>
      </trkpt>
      <trkpt lat="36.152822" lon="-86.824843">
        <ele>180.457008</ele>
        <time>2024-05-19T07:57:05.000Z</time>
      </trkpt>
      <trkpt lat="36.152849" lon="-86.824177">
        <ele>180.252896</ele>
        <time>2024-05-19T07:57:11.000Z</time>
      </trkpt>
      <trkpt lat="36.152846" lon="-86.824107">
        <ele>180.232401</ele>
        <time>2024-05-19T07:57:12.000Z</time>
      </trkpt>
      <trkpt lat="36.152873" lon="-86.823541">
        <ele>179.087111</ele>
        <time>2024-05-19T07:57:17.000Z</time>
      </trkpt>
      <trkpt lat="36.153046" lon="-86.822349">
        <ele>175.129885</ele>
        <time>2024-05-19T07:57:28.000Z</time>
      </trkpt>
      <trkpt lat="36.153294" lon="-86.821181">
        <ele>171.492108</ele>
        <time>2024-05-19T07:57:39.000Z</time>
      </trkpt>
      <trkpt lat="36.15334" lon="-86.820943">
        <ele>170.873964</ele>
        <time>2024-05-19T07:57:41.000Z</time>
      </trkpt>
      <trkpt lat="36.153366" lon="-86.820861">
        <ele>170.612497</ele>
        <time>2024-05-19T07:57:42.000Z</time>
      </trkpt>
      <trkpt lat="36.1534" lon="-86.820694">
        <ele>170.158833</ele>
        <time>2024-05-19T07:57:44.000Z</time>
      </trkpt>
      <trkpt lat="36.153659" lon="-86.819625">
        <ele>167.237359</ele>
        <time>2024-05-19T07:57:54.000Z</time>
      </trkpt>
      <trkpt lat="36.153923" lon="-86.818309">
        <ele>165.728777</ele>
        <time>2024-05-19T07:58:06.000Z</time>
      </trkpt>
      <trkpt lat="36.153964" lon="-86.818158">
        <ele>165.588599</ele>
        <time>2024-05-19T07:58:07.000Z</time>
      </trkpt>
      <trkpt lat="36.153812" lon="-86.818125">
        <ele>165.415343</ele>
        <time>2024-05-19T07:58:09.000Z</time>
      </trkpt>
      <trkpt lat="36.153538" lon="-86.818084">
        <ele>165.068999</ele>
        <time>2024-05-19T07:58:12.000Z</time>
      </trkpt>
      <trkpt lat="36.153352" lon="-86.818132">
        <ele>164.82122</ele>
        <time>2024-05-19T07:58:14.000Z</time>
      </trkpt>
      <trkpt lat="36.152961" lon="-86.818238">
        <ele>164.898619</ele>
        <time>2024-05-19T07:58:18.000Z</time>
      </trkpt>
      <trkpt lat="36.152632" lon="-86.818364">
        <ele>165.024757</ele>
        <time>2024-05-19T07:58:22.000Z</time>
      </trkpt>
      <trkpt lat="36.152512" lon="-86.818442">
        <ele>165.073264</ele>
        <time>2024-05-19T07:58:24.000Z</time>
      </trkpt>
      <trkpt lat="36.152401" lon="-86.818536">
        <ele>165.119061</ele>
        <time>2024-05-19T07:58:25.000Z</time>
      </trkpt>
      <trkpt lat="36.152104" lon="-86.818759">
        <ele>165.24217</ele>
        <time>2024-05-19T07:58:29.000Z</time>
      </trkpt>
      <trkpt lat="36.15163" lon="-86.819117">
        <ele>165.509637</ele>
        <time>2024-05-19T07:58:35.000Z</time>
      </trkpt>
      <trkpt lat="36.15136" lon="-86.8192">
        <ele>165.871109</ele>
        <time>2024-05-19T07:58:38.000Z</time>
      </trkpt>
      <trkpt lat="36.151131" lon="-86.819171">
        <ele>166.185399</ele>
        <time>2024-05-19T07:58:41.000Z</time>
      </trkpt>
      <trkpt lat="36.150958" lon="-86.819118">
        <ele>166.415638</ele>
        <time>2024-05-19T07:58:43.000Z</time>
      </trkpt>
      <trkpt lat="36.15081" lon="-86.818998">
        <ele>166.64671</ele>
        <time>2024-05-19T07:58:45.000Z</time>
      </trkpt>
      <trkpt lat="36.15043" lon="-86.818562">
        <ele>167.31525</ele>
        <time>2024-05-19T07:58:51.000Z</time>
      </trkpt>
      <trkpt lat="36.150394" lon="-86.818519">
        <ele>167.380189</ele>
        <time>2024-05-19T07:58:52.000Z</time>
      </trkpt>
      <trkpt lat="36.150286" lon="-86.818397">
        <ele>167.585074</ele>
        <time>2024-05-19T07:58:54.000Z</time>
      </trkpt>
      <trkpt lat="36.149957" lon="-86.818016">
        <ele>167.257535</ele>
        <time>2024-05-19T07:58:59.000Z</time>
      </trkpt>
      <trkpt lat="36.149904" lon="-86.817948">
        <ele>167.122005</ele>
        <time>2024-05-19T07:59:00.000Z</time>
      </trkpt>
      <trkpt lat="36.150003" lon="-86.817833">
        <ele>166.887891</ele>
        <time>2024-05-19T07:59:02.000Z</time>
      </trkpt>
      <trkpt lat="36.15045" lon="-86.817284">
        <ele>165.839011</ele>
        <time>2024-05-19T07:59:09.000Z</time>
      </trkpt>
      <trkpt lat="36.151089" lon="-86.81646">
        <ele>164.062112</ele>
        <time>2024-05-19T07:59:19.000Z</time>
      </trkpt>
      <trkpt lat="36.151543" lon="-86.815889">
        <ele>162.424876</ele>
        <time>2024-05-19T07:59:26.000Z</time>
      </trkpt>
      <trkpt lat="36.151999" lon="-86.815302">
        <ele>160.785644</ele>
        <time>2024-05-19T07:59:33.000Z</time>
      </trkpt>
      <trkpt lat="36.152626" lon="-86.814491">
        <ele>159.848114</ele>
        <time>2024-05-19T07:59:43.000Z</time>
      </trkpt>
      <trkpt lat="36.152794" lon="-86.814266">
        <ele>159.702248</ele>
        <time>2024-05-19T07:59:46.000Z</time>
      </trkpt>
      <trkpt lat="36.152627" lon="-86.814493">
        <ele>159.556393</ele>
        <time>2024-05-19T07:59:49.000Z</time>
      </trkpt>
      <trkpt lat="36.152303" lon="-86.814113">
        <ele>159.307431</ele>
        <time>2024-05-19T07:59:54.000Z</time>
      </trkpt>
      <trkpt lat="36.152165" lon="-86.814068">
        <ele>159.224133</ele>
        <time>2024-05-19T07:59:56.000Z</time>
      </trkpt>
      <trkpt lat="36.152282" lon="-86.813919">
        <ele>159.382614</ele>
        <time>2024-05-19T07:59:58.000Z</time>
      </trkpt>
      <trkpt lat="36.152177" lon="-86.814081">
        <ele>159.560321</ele>
        <time>2024-05-19T08:00:00.000Z</time>
      </trkpt>
      <trkpt lat="36.151933" lon="-86.814413">
        <ele>159.937278</ele>
        <time>2024-05-19T08:00:04.000Z</time>
      </trkpt>
      <trkpt lat="36.151753" lon="-86.814717">
        <ele>160.276296</ele>
        <time>2024-05-19T08:00:07.000Z</time>
      </trkpt>
      <trkpt lat="36.151613" lon="-86.815055">
        <ele>160.597639</ele>
        <time>2024-05-19T08:00:10.000Z</time>
      </trkpt>
      <trkpt lat="36.1515" lon="-86.815287">
        <ele>160.823321</ele>
        <time>2024-05-19T08:00:12.000Z</time>
      </trkpt>
      <trkpt lat="36.151399" lon="-86.815359">
        <ele>160.944045</ele>
        <time>2024-05-19T08:00:13.000Z</time>
      </trkpt>
      <trkpt lat="36.151297" lon="-86.815388">
        <ele>161.065186</ele>
        <time>2024-05-19T08:00:14.000Z</time>
      </trkpt>
      <trkpt lat="36.151013" lon="-86.815276">
        <ele>161.340775</ele>
        <time>2024-05-19T08:00:17.000Z</time>
      </trkpt>
      <trkpt lat="36.150778" lon="-86.815192">
        <ele>161.57533</ele>
        <time>2024-05-19T08:00:20.000Z</time>
      </trkpt>
      <trkpt lat="36.150584" lon="-86.815191">
        <ele>161.763194</ele>
        <time>2024-05-19T08:00:22.000Z</time>
      </trkpt>
      <trkpt lat="36.150347" lon="-86.81522">
        <ele>161.974893</ele>
        <time>2024-05-19T08:00:25.000Z</time>
      </trkpt>
      <trkpt lat="36.150092" lon="-86.815148">
        <ele>162.23309</ele>
        <time>2024-05-19T08:00:28.000Z</time>
      </trkpt>
      <trkpt lat="36.149999" lon="-86.815008">
        <ele>162.358226</ele>
        <time>2024-05-19T08:00:30.000Z</time>
      </trkpt>
      <trkpt lat="36.149955" lon="-86.814912">
        <ele>162.441426</ele>
        <time>2024-05-19T08:00:31.000Z</time>
      </trkpt>
      <trkpt lat="36.149748" lon="-86.814624">
        <ele>162.737756</ele>
        <time>2024-05-19T08:00:34.000Z</time>
      </trkpt>
      <trkpt lat="36.149629" lon="-86.814477">
        <ele>162.819244</ele>
        <time>2024-05-19T08:00:36.000Z</time>
      </trkpt>
      <trkpt lat="36.149537" lon="-86.814401">
        <ele>162.872853504</ele>
        <time>2024-05-19T08:00:37.000Z</time>
      </trkpt>
      <trkpt lat="36.149376" lon="-86.814279">
        <ele>162.964350957</ele>
        <time>2024-05-19T08:00:39.000Z</time>
      </trkpt>
      <trkpt lat="36.149274" lon="-86.814194">
        <ele>163.023948678</ele>
        <time>2024-05-19T08:00:40.000Z</time>
      </trkpt>
      <trkpt lat="36.149178" lon="-86.814121">
        <ele>163.078558302</ele>
        <time>2024-05-19T08:00:41.000Z</time>
      </trkpt>
      <trkpt lat="36.149039" lon="-86.813995">
        <ele>163.162061897</ele>
        <time>2024-05-19T08:00:43.000Z</time>
      </trkpt>
      <trkpt lat="36.148489" lon="-86.813554">
        <ele>163.479684874</ele>
        <time>2024-05-19T08:00:50.000Z</time>
      </trkpt>
      <trkpt lat="36.148359" lon="-86.813435">
        <ele>163.55805065</ele>
        <time>2024-05-19T08:00:52.000Z</time>
      </trkpt>
      <trkpt lat="36.148292" lon="-86.813395">
        <ele>163.594106748</ele>
        <time>2024-05-19T08:00:53.000Z</time>
      </trkpt>
    </trkseg>
  </trk>
</gpx>

<!--
Performance optimized by W3 Total Cache. Learn more: https://www.boldgrid.com/w3-total-cache/?utm_source=w3tc&utm_medium=footer_comment&utm_campaign=free_plugin

Page Caching using Disk: Enhanced{w3tc_pagecache_reject_reason} 

Served from: www.aquabike.world @ 2026-05-08 04:56:27 by W3 Total Cache
-->